Pagina principale
METAR-TAF:

METAR-TAF

Aeroporti :

Ancona, Italia

latitudine: 43-37N, longitudine: 013-22E, altezza: 12 m

Osservazione

Il bollettino è stato emesso 34 minuti fa, alle 09:50 UTC
Vento 7 kt da sud-est, variando fra est e sud
Temperature 27°C
Umidità 42%
Pressione 1007 hPa
Visibilità 10 km o più

METAR: LIPY 070950Z AUTO 14007KT 090V190 9999 // NCD 27/13 Q1007

Ora: 12:24 (10:24 UTC)

Previsione

Il bollettino è stato emesso 5 ore e 24 minuti fa, alle 05:00 UTC
Previsione valida dal 07 alle 06 UTC al 08 alle 06 UTC
Vento 4 kt da direzioni variabili
Visibilità 10 km o più
Nubi sparse ad un'altezza di 3000 ft
Evoluzione graduale
dal 07 alle 10 UTC al 07 alle 12 UTC
Vento 10 kt da sud/sud-est
Temporaneamente
dal 07 alle 12 UTC al 07 alle 16 UTC
pioggia

TAF: LIPY 070500Z 0706/0806 VRB04KT 9999 SCT030 BECMG 0710/0712 16010KT TEMPO 0712/0716 RA

Osservazioni e previsioni meteorologiche di più di 4000 aeroporti (messaggi METAR e TAF).

Le stazioni disponibili sono rappresentate dai dischi gialli e rossi sulla carta.

Puntare il mouse per vedere il nome della stazione.

Clicca sopra per visualizzare le osservazioni e previsioni meteorologiche.

Per cambiare la mappa : fare clic sui pulsanti verdi con una croce nera per ingrandire, il pulsante verde con un trattino per diminuire, o sulla freccia verde per le mappe adiacenti.


METAR-TAF: